createdAt,value
2018-02-16T00:00:52.966Z,57.60
2018-02-16T00:01:54.386Z,57.70
2018-02-16T00:02:55.787Z,57.90
2018-02-16T00:03:57.183Z,57.60
2018-02-16T00:04:58.581Z,57.80
2018-02-16T00:06:00.708Z,58.00
2018-02-16T00:07:02.112Z,57.50
2018-02-16T00:08:03.535Z,57.50
2018-02-16T00:09:05.668Z,58.80
2018-02-16T00:10:08.549Z,57.60
2018-02-16T00:11:10.674Z,58.00
2018-02-16T00:12:12.074Z,57.50
2018-02-16T00:13:14.241Z,57.50
2018-02-16T00:14:15.634Z,57.70
2018-02-16T00:15:18.500Z,57.70
2018-02-16T00:16:19.892Z,57.70
2018-02-16T00:17:21.281Z,58.20
2018-02-16T00:18:22.686Z,58.10
2018-02-16T00:19:24.081Z,57.90
2018-02-16T00:20:26.212Z,58.10
2018-02-16T00:21:27.604Z,57.70
2018-02-16T00:22:29.721Z,57.60
2018-02-16T00:23:31.478Z,57.70
2018-02-16T00:24:34.357Z,57.40
2018-02-16T00:25:35.767Z,57.50
2018-02-16T00:26:37.173Z,57.70
2018-02-16T00:27:38.580Z,57.50
2018-02-16T00:28:40.985Z,58.20
2018-02-16T00:29:42.395Z,58.00
2018-02-16T00:30:43.800Z,58.00
2018-02-16T00:31:45.200Z,57.80
2018-02-16T00:32:47.329Z,58.80
2018-02-16T00:33:48.741Z,58.60
2018-02-16T00:34:50.124Z,58.70
2018-02-16T00:35:51.514Z,58.70
2018-02-16T00:37:56.013Z,58.00
2018-02-16T00:38:57.422Z,57.80
2018-02-16T00:39:58.807Z,57.70
2018-02-16T00:41:00.190Z,57.40
2018-02-16T00:42:01.579Z,57.00
2018-02-16T00:43:02.994Z,57.00
2018-02-16T00:44:04.435Z,56.60
2018-02-16T00:45:05.849Z,56.70
2018-02-16T00:46:07.271Z,56.70
2018-02-16T00:47:09.401Z,57.40
2018-02-16T00:48:10.789Z,56.90
2018-02-16T00:49:12.208Z,57.00
2018-02-16T00:50:13.608Z,57.00
2018-02-16T00:51:14.992Z,57.20
2018-02-16T00:52:16.364Z,57.20
2018-02-16T00:53:17.753Z,57.20
2018-02-16T00:54:20.624Z,57.50
2018-02-16T00:55:23.503Z,57.30
2018-02-16T00:56:25.644Z,57.80
2018-02-16T00:57:28.536Z,57.00
2018-02-16T00:59:33.353Z,56.80
2018-02-16T01:00:35.500Z,57.60
2018-02-16T01:01:36.915Z,57.30
2018-02-16T01:02:38.309Z,57.20
2018-02-16T01:03:39.681Z,57.00
2018-02-16T01:04:41.103Z,56.50
2018-02-16T01:05:43.609Z,56.50
2018-02-16T01:06:44.988Z,56.50
2018-02-16T01:07:46.401Z,56.50
2018-02-16T01:08:47.805Z,56.20
2018-02-16T01:14:01.935Z,56.20
2018-02-16T01:15:03.377Z,56.50
2018-02-16T01:16:04.775Z,56.50
2018-02-16T01:17:06.178Z,57.00
2018-02-16T01:18:07.591Z,56.90
2018-02-16T01:19:08.960Z,57.20
2018-02-16T01:20:10.658Z,57.20
2018-02-16T01:21:13.543Z,57.30
2018-02-16T01:22:15.680Z,57.30
2018-02-16T01:23:18.576Z,56.60
2018-02-16T01:24:19.969Z,56.90
2018-02-16T01:25:21.647Z,57.20
2018-02-16T01:26:23.806Z,57.90
2018-02-16T01:27:25.960Z,57.90
2018-02-16T01:28:28.844Z,57.50
2018-02-16T01:29:30.985Z,58.10
2018-02-16T01:30:32.411Z,57.70
2018-02-16T01:31:33.786Z,58.00
2018-02-16T01:32:35.923Z,57.90
2018-02-16T01:33:38.427Z,57.00
2018-02-16T01:34:39.821Z,56.70
2018-02-16T01:35:41.221Z,57.40
2018-02-16T01:36:43.355Z,57.40
2018-02-16T01:37:44.753Z,57.40
2018-02-16T01:38:46.148Z,57.30
2018-02-16T01:39:47.549Z,57.30
2018-02-16T01:40:49.978Z,57.80
2018-02-16T01:41:51.373Z,57.30
2018-02-16T01:42:52.789Z,57.40
2018-02-16T01:43:55.813Z,57.40
2018-02-16T01:44:57.193Z,57.40
2018-02-16T01:45:58.957Z,57.10
2018-02-16T01:47:01.095Z,57.70
2018-02-16T01:48:02.513Z,57.30
2018-02-16T01:49:03.912Z,57.20
2018-02-16T01:50:05.373Z,57.40
2018-02-16T01:51:07.056Z,57.80
2018-02-16T01:52:09.932Z,58.50
2018-02-16T01:53:11.337Z,58.20
2018-02-16T01:54:13.461Z,57.90
2018-02-16T01:55:15.585Z,58.50
2018-02-16T01:56:17.257Z,58.30
2018-02-16T01:57:19.381Z,58.70
2018-02-16T01:58:20.764Z,58.10
2018-02-16T01:59:22.166Z,58.10
2018-02-16T02:00:23.533Z,58.50
2018-02-16T02:01:26.007Z,58.80
2018-02-16T02:02:27.428Z,58.40
2018-02-16T02:03:29.557Z,58.50
2018-02-16T02:04:30.948Z,58.00
2018-02-16T02:05:32.345Z,57.80
2018-02-16T02:06:33.739Z,57.70
2018-02-16T02:07:35.181Z,57.70
2018-02-16T02:08:36.587Z,57.60
2018-02-16T02:09:39.477Z,57.60
2018-02-16T02:10:40.875Z,57.70
2018-02-16T02:11:42.539Z,57.60
2018-02-16T02:12:44.702Z,58.50
2018-02-16T02:13:46.884Z,58.40
2018-02-16T02:14:48.292Z,58.00
2018-02-16T02:15:50.421Z,58.70
2018-02-16T02:16:52.105Z,58.20
2018-02-16T02:17:54.620Z,58.70
2018-02-16T02:18:56.005Z,58.90
2018-02-16T02:19:58.520Z,58.10
2018-02-16T02:20:59.941Z,58.00
2018-02-16T02:22:01.649Z,57.90
2018-02-16T02:23:03.038Z,58.00
2018-02-16T02:24:04.433Z,58.00
2018-02-16T02:25:06.571Z,58.30
2018-02-16T02:26:07.967Z,57.90
2018-02-16T02:27:09.659Z,57.70
2018-02-16T02:28:11.053Z,57.60
2018-02-16T02:29:12.430Z,57.60
2018-02-16T02:30:15.296Z,57.90
2018-02-16T02:31:17.425Z,57.30
2018-02-16T02:32:18.841Z,57.50
2018-02-16T02:33:20.243Z,57.30
2018-02-16T02:34:21.663Z,57.80
2018-02-16T02:35:23.039Z,57.50
2018-02-16T02:36:25.181Z,58.40
2018-02-16T02:37:26.587Z,57.50
2018-02-16T02:38:28.721Z,57.80
2018-02-16T02:39:30.114Z,57.90
2018-02-16T02:40:31.503Z,58.20
2018-02-16T02:41:32.902Z,58.30
2018-02-16T02:42:34.313Z,58.30
2018-02-16T02:43:35.705Z,58.00
2018-02-16T02:44:38.597Z,58.20
2018-02-16T02:45:40.740Z,58.00
2018-02-16T02:46:42.159Z,58.00
2018-02-16T02:47:44.643Z,59.00
2018-02-16T02:48:46.051Z,58.00
2018-02-16T02:49:47.450Z,57.90
2018-02-16T02:50:48.849Z,57.80
2018-02-16T02:51:50.977Z,58.20
2018-02-16T02:52:52.637Z,57.70
2018-02-16T02:53:54.037Z,58.20
2018-02-16T02:54:55.438Z,58.10
2018-02-16T02:56:59.953Z,57.70
2018-02-16T02:58:02.099Z,58.20
2018-02-16T02:59:03.482Z,57.80
2018-02-16T03:00:05.641Z,58.00
2018-02-16T03:01:07.030Z,57.90
2018-02-16T03:02:09.557Z,58.40
2018-02-16T03:03:11.245Z,58.40
2018-02-16T03:04:13.373Z,58.00
2018-02-16T03:05:14.771Z,58.10
2018-02-16T03:06:16.153Z,58.00
2018-02-16T03:07:19.041Z,58.30
2018-02-16T03:08:20.458Z,57.90
2018-02-16T03:09:21.869Z,58.30
2018-02-16T03:10:23.265Z,58.10
2018-02-16T03:11:24.653Z,58.10
2018-02-16T03:12:26.033Z,58.30
2018-02-16T03:13:27.705Z,58.50
2018-02-16T03:14:29.829Z,58.70
2018-02-16T03:15:31.960Z,58.20
2018-02-16T03:16:33.351Z,58.30
2018-02-16T03:17:35.503Z,58.80
2018-02-16T03:18:38.645Z,58.50
2018-02-16T03:19:40.022Z,58.60
2018-02-16T03:20:42.169Z,59.40
2018-02-16T03:21:43.561Z,58.50
2018-02-16T03:22:44.945Z,58.40
2018-02-16T03:23:46.372Z,58.20
2018-02-16T03:24:47.801Z,58.20
2018-02-16T03:25:49.214Z,58.40
2018-02-16T03:26:50.625Z,58.50
2018-02-16T03:27:53.513Z,58.20
2018-02-16T03:28:55.205Z,58.30
2018-02-16T03:29:56.631Z,58.30
2018-02-16T03:30:58.054Z,58.10
2018-02-16T03:31:59.461Z,58.40
2018-02-16T03:33:01.595Z,59.00
2018-02-16T03:34:03.305Z,58.50
2018-02-16T03:35:04.725Z,58.10
2018-02-16T03:36:06.133Z,58.10
2018-02-16T03:37:08.271Z,58.20
2018-02-16T03:38:10.409Z,58.20
2018-02-16T03:39:12.098Z,58.40
2018-02-16T03:40:14.275Z,59.30
2018-02-16T03:41:16.418Z,58.60
2018-02-16T03:42:18.542Z,59.30
2018-02-16T03:43:19.941Z,58.40
2018-02-16T03:44:21.609Z,58.20
2018-02-16T03:45:23.013Z,58.30
2018-02-16T03:46:25.147Z,58.80
2018-02-16T03:47:26.534Z,58.50
2018-02-16T03:48:27.937Z,58.20
2018-02-16T03:49:30.403Z,59.10
2018-02-16T03:50:33.279Z,58.50
2018-02-16T03:51:35.775Z,58.70
2018-02-16T03:52:37.162Z,58.60
2018-02-16T03:53:38.557Z,58.40
2018-02-16T03:54:40.229Z,58.70
2018-02-16T03:55:41.617Z,58.70
2018-02-16T03:56:42.993Z,58.50
2018-02-16T03:57:44.390Z,58.80
2018-02-16T03:58:46.907Z,58.50
2018-02-16T03:59:48.585Z,58.50
2018-02-16T04:00:49.977Z,58.60
2018-02-16T04:01:51.381Z,58.70
2018-02-16T04:02:53.522Z,58.90
2018-02-16T04:03:55.673Z,58.70
2018-02-16T04:04:57.084Z,58.20
2018-02-16T04:05:58.470Z,58.40
2018-02-16T04:07:01.009Z,58.30
2018-02-16T04:08:02.403Z,58.30
2018-02-16T04:09:03.864Z,58.60
2018-02-16T04:10:05.273Z,58.50
2018-02-16T04:11:06.673Z,58.70
2018-02-16T04:12:08.085Z,58.70
2018-02-16T04:13:09.465Z,59.00
2018-02-16T04:14:11.605Z,59.70
2018-02-16T04:15:13.305Z,59.10
2018-02-16T04:16:14.697Z,59.00
2018-02-16T04:17:16.091Z,58.70
2018-02-16T04:18:18.977Z,59.00
2018-02-16T04:19:21.409Z,59.10
2018-02-16T04:20:22.809Z,59.20
2018-02-16T04:21:24.195Z,59.00
2018-02-16T04:22:25.589Z,58.80
2018-02-16T04:23:26.973Z,59.00
2018-02-16T04:24:28.365Z,59.00
2018-02-16T04:25:29.785Z,58.70
2018-02-16T04:26:31.169Z,58.80
2018-02-16T04:27:33.291Z,58.90
2018-02-16T04:28:34.685Z,59.00
2018-02-16T04:29:36.073Z,59.10
2018-02-16T04:30:38.568Z,58.80
2018-02-16T04:31:40.713Z,59.40
2018-02-16T04:32:42.091Z,58.90
2018-02-16T04:33:43.502Z,59.00
2018-02-16T04:34:45.645Z,59.30
2018-02-16T04:35:47.047Z,58.90
2018-02-16T04:36:48.425Z,58.40
2018-02-16T04:37:49.825Z,58.70
2018-02-16T04:38:51.217Z,58.90
2018-02-16T04:39:53.346Z,59.80
2018-02-16T04:40:55.017Z,59.40
2018-02-16T04:41:57.157Z,60.10
2018-02-16T04:42:58.539Z,59.80
2018-02-16T04:43:59.928Z,59.90
2018-02-16T04:45:01.342Z,60.30
2018-02-16T04:46:02.797Z,59.90
2018-02-16T04:47:04.925Z,60.40
2018-02-16T04:48:06.324Z,60.00
2018-02-16T04:49:08.482Z,60.40
2018-02-16T04:50:11.339Z,59.80
2018-02-16T04:51:12.753Z,60.00
2018-02-16T04:52:15.653Z,59.80
2018-02-16T04:53:17.053Z,59.90
2018-02-16T04:54:18.449Z,60.00
2018-02-16T04:55:20.585Z,60.40
2018-02-16T04:56:22.253Z,60.00
2018-02-16T04:57:24.413Z,60.50
2018-02-16T04:58:26.545Z,60.40
2018-02-16T04:59:27.961Z,60.00
2018-02-16T05:00:29.363Z,59.90
2018-02-16T05:01:31.089Z,60.10
2018-02-16T05:02:33.209Z,59.70
2018-02-16T05:03:34.595Z,59.80
2018-02-16T05:04:36.772Z,59.70
2018-02-16T05:05:38.169Z,59.30
2018-02-16T05:06:39.593Z,59.40
2018-02-16T05:07:41.753Z,59.30
2018-02-16T05:08:43.149Z,59.30
2018-02-16T05:09:44.537Z,60.50
2018-02-16T05:10:45.937Z,59.60
2018-02-16T05:11:47.642Z,59.40
2018-02-16T05:12:49.795Z,60.00
2018-02-16T05:13:51.173Z,59.70
2018-02-16T05:14:52.560Z,59.20
2018-02-16T05:15:53.957Z,59.20
2018-02-16T05:16:55.349Z,59.00
2018-02-16T05:17:56.722Z,58.70
2018-02-16T05:18:58.105Z,58.60
2018-02-16T05:19:59.489Z,58.50
2018-02-16T05:21:01.609Z,58.50
2018-02-16T05:22:03.289Z,57.90
2018-02-16T05:23:05.441Z,58.20
2018-02-16T05:24:06.833Z,57.60
2018-02-16T05:25:08.247Z,57.60
2018-02-16T05:26:09.633Z,57.50
2018-02-16T05:27:11.033Z,57.60
2018-02-16T05:28:13.163Z,57.50
2018-02-16T05:29:14.561Z,57.50
2018-02-16T05:30:15.953Z,57.40
2018-02-16T05:31:18.449Z,57.50
2018-02-16T05:32:19.865Z,57.70
2018-02-16T05:33:21.265Z,57.50
2018-02-16T05:34:22.661Z,57.50
2018-02-16T05:35:24.045Z,57.10
2018-02-16T05:36:25.445Z,57.00
2018-02-16T05:37:26.871Z,56.90
2018-02-16T05:38:28.272Z,56.80
2018-02-16T05:39:31.144Z,57.00
2018-02-16T05:40:33.291Z,57.90
2018-02-16T05:41:34.685Z,57.50
2018-02-16T05:42:36.386Z,57.40
2018-02-16T05:43:38.531Z,58.00
2018-02-16T05:44:39.925Z,57.60
2018-02-16T05:45:41.357Z,57.20
2018-02-16T05:46:42.802Z,57.30
2018-02-16T05:47:44.217Z,57.20
2018-02-16T05:48:45.627Z,57.10
2018-02-16T05:49:47.021Z,57.00
2018-02-16T05:50:48.415Z,57.00
2018-02-16T05:51:50.553Z,57.60
2018-02-16T05:52:51.949Z,57.10
2018-02-16T05:53:53.345Z,57.70
2018-02-16T05:54:54.737Z,57.60
2018-02-16T05:55:56.133Z,57.50
2018-02-16T05:56:58.263Z,57.90
2018-02-16T05:58:00.401Z,57.80
2018-02-16T05:59:01.805Z,58.00
2018-02-16T06:00:03.235Z,57.60
2018-02-16T06:01:06.121Z,57.30
2018-02-16T06:02:07.505Z,57.40
2018-02-16T06:03:08.925Z,57.20
2018-02-16T06:04:10.330Z,57.30
2018-02-16T06:05:13.203Z,57.20
2018-02-16T06:06:14.595Z,57.30
2018-02-16T06:07:16.743Z,57.10
2018-02-16T06:08:18.149Z,57.20
2018-02-16T06:09:19.541Z,57.10
2018-02-16T06:10:20.939Z,57.10
2018-02-16T06:11:23.093Z,57.20
2018-02-16T06:12:24.495Z,57.30
2018-02-16T06:13:25.906Z,57.10
2018-02-16T06:14:27.284Z,57.20
2018-02-16T06:15:29.393Z,57.80
2018-02-16T06:16:30.817Z,57.30
2018-02-16T06:20:41.662Z,57.20
2018-02-16T06:21:44.149Z,57.00
2018-02-16T06:22:46.295Z,57.20
2018-02-16T06:23:47.718Z,57.40
2018-02-16T06:24:50.229Z,57.00
2018-02-16T06:25:51.625Z,57.10
2018-02-16T06:27:56.121Z,58.60
2018-02-16T06:28:58.266Z,56.90
2018-02-16T06:29:59.648Z,57.00
2018-02-16T06:32:04.197Z,56.90
2018-02-16T06:33:05.591Z,56.90
2018-02-16T06:35:11.157Z,56.90
2018-02-16T06:36:13.299Z,57.00
2018-02-16T06:38:17.806Z,56.60
2018-02-16T06:39:19.237Z,56.50
2018-02-16T06:40:20.645Z,56.90
2018-02-16T06:41:22.045Z,57.20
2018-02-16T06:42:24.957Z,56.70
2018-02-16T06:43:26.362Z,56.70
2018-02-16T06:45:30.893Z,56.50
2018-02-16T06:47:36.101Z,56.50
2018-02-16T06:48:37.492Z,56.50
2018-02-16T06:49:38.909Z,57.00
2018-02-16T06:50:40.331Z,56.50
2018-02-16T06:52:44.856Z,56.50
2018-02-16T06:54:49.943Z,57.10
2018-02-16T06:57:57.555Z,57.10
2018-02-16T06:58:58.947Z,57.30
2018-02-16T07:00:00.396Z,57.10
2018-02-16T07:01:01.774Z,57.00
2018-02-16T07:02:03.185Z,57.10
2018-02-16T07:04:07.709Z,57.00
2018-02-16T07:05:09.124Z,57.50
2018-02-16T07:06:10.513Z,57.30
2018-02-16T07:07:11.917Z,57.40
2018-02-16T07:08:13.319Z,57.00
2018-02-16T07:09:15.445Z,58.00
2018-02-16T07:10:16.860Z,56.90
2018-02-16T07:11:18.261Z,57.10
2018-02-16T07:12:19.664Z,56.80
2018-02-16T07:13:21.057Z,57.10
2018-02-16T07:14:22.461Z,57.30
2018-02-16T07:15:25.377Z,57.40
2018-02-16T07:16:26.797Z,57.60
2018-02-16T07:17:28.189Z,57.80
2018-02-16T07:18:29.574Z,57.30
2018-02-16T07:19:30.991Z,57.20
2018-02-16T07:20:33.186Z,56.80
2018-02-16T07:21:34.613Z,58.80
2018-02-16T07:23:39.110Z,57.50
2018-02-16T07:24:41.245Z,58.10
2018-02-16T07:25:42.713Z,57.80
2018-02-16T07:26:44.853Z,58.40
2018-02-16T07:27:46.989Z,57.70
2018-02-16T07:28:48.391Z,57.70
2018-02-16T07:29:49.774Z,57.70
2018-02-16T07:30:51.455Z,57.90
2018-02-16T07:31:53.604Z,58.50
2018-02-16T07:32:56.481Z,57.80
2018-02-16T07:33:58.613Z,58.40
2018-02-16T07:35:00.033Z,57.90
2018-02-16T07:36:01.509Z,58.00
2018-02-16T07:37:03.638Z,58.40
2018-02-16T07:38:05.044Z,57.80
2018-02-16T07:39:06.465Z,58.30
2018-02-16T07:40:07.889Z,58.00
2018-02-16T07:41:10.036Z,58.70
2018-02-16T07:42:11.431Z,58.30
2018-02-16T07:43:12.849Z,58.50
2018-02-16T07:44:14.248Z,58.50
2018-02-16T07:45:15.652Z,58.50
2018-02-16T07:46:17.070Z,58.40
2018-02-16T07:47:18.442Z,58.30
2018-02-16T07:48:19.834Z,58.30
2018-02-16T07:49:21.949Z,58.70
2018-02-16T07:50:24.112Z,58.30
2018-02-16T07:51:25.501Z,57.80
2018-02-16T07:52:26.889Z,57.40
2018-02-16T07:53:28.293Z,57.00
2018-02-16T07:54:29.670Z,56.80
2018-02-16T07:55:31.090Z,56.60
2018-02-16T07:56:32.512Z,56.60
2018-02-16T07:57:33.905Z,56.60
2018-02-16T07:58:36.070Z,57.10
2018-02-16T07:59:37.462Z,56.60
2018-02-16T08:00:38.866Z,56.60
2018-02-16T08:01:40.289Z,57.10
2018-02-16T08:03:44.782Z,57.40
2018-02-16T08:04:46.162Z,57.20
2018-02-16T08:05:47.541Z,57.00
2018-02-16T08:06:49.962Z,57.50
2018-02-16T08:07:51.361Z,57.00
2018-02-16T08:08:52.751Z,57.00
2018-02-16T08:09:54.147Z,56.80
2018-02-16T08:10:55.583Z,57.10
2018-02-16T08:11:56.989Z,57.50
2018-02-16T08:12:59.110Z,57.40
2018-02-16T08:14:01.250Z,57.70
2018-02-16T08:15:02.670Z,57.20
2018-02-16T08:16:04.050Z,57.60
2018-02-16T08:17:06.513Z,58.20
2018-02-16T08:18:08.638Z,58.40
2018-02-16T08:19:10.032Z,58.00
2018-02-16T08:20:11.442Z,58.40
2018-02-16T08:21:13.569Z,58.70
2018-02-16T08:22:15.038Z,58.20
2018-02-16T08:23:17.170Z,58.40
2018-02-16T08:24:18.569Z,57.80
2018-02-16T08:25:19.946Z,58.10
2018-02-16T08:26:21.343Z,58.30
2018-02-16T08:27:22.750Z,58.60
2018-02-16T08:28:25.265Z,58.60
2018-02-16T08:29:26.645Z,58.70
2018-02-16T08:31:31.882Z,58.20
2018-02-16T08:32:33.306Z,57.70
2018-02-16T08:33:34.709Z,57.60
2018-02-16T08:34:36.103Z,57.30
2018-02-16T08:36:40.622Z,57.10
2018-02-16T08:37:42.045Z,56.70
2018-02-16T08:38:43.444Z,57.60
2018-02-16T08:39:44.838Z,57.60
2018-02-16T08:40:46.241Z,58.00
2018-02-16T08:41:47.652Z,58.00
2018-02-16T08:42:49.373Z,57.60
2018-02-16T08:43:51.503Z,57.50
2018-02-16T08:44:52.882Z,57.00
2018-02-16T08:45:55.026Z,57.20
2018-02-16T08:46:57.149Z,57.20
2018-02-16T08:47:58.557Z,56.70
2018-02-16T08:48:59.966Z,57.40
2018-02-16T08:51:04.478Z,57.50
2018-02-16T08:52:06.634Z,57.80
2018-02-16T08:53:08.789Z,57.90
2018-02-16T08:54:10.926Z,57.90
2018-02-16T08:55:12.323Z,57.40
2018-02-16T08:56:13.727Z,57.10
2018-02-16T08:57:15.862Z,58.00
2018-02-16T08:58:18.048Z,57.50
2018-02-16T08:59:20.181Z,57.90
2018-02-16T09:00:21.577Z,57.50
2018-02-16T09:01:22.984Z,57.80
2018-02-16T09:02:25.154Z,58.60
2018-02-16T09:03:26.560Z,58.30
2018-02-16T09:04:27.958Z,58.20
2018-02-16T09:05:29.329Z,58.10
2018-02-16T09:06:30.735Z,57.70
2018-02-16T09:07:32.883Z,57.40
2018-02-16T09:08:34.294Z,57.30
2018-02-16T09:09:37.166Z,57.50
2018-02-16T09:10:39.291Z,57.90
2018-02-16T09:11:40.694Z,57.30
2018-02-16T09:12:42.089Z,57.10
2018-02-16T09:13:44.250Z,57.50
2018-02-16T09:14:45.638Z,57.20
2018-02-16T09:15:47.022Z,56.90
2018-02-16T09:16:48.426Z,56.90
2018-02-16T09:17:49.808Z,56.90
2018-02-16T09:18:51.953Z,58.00
2018-02-16T09:19:53.339Z,57.60
2018-02-16T09:20:54.743Z,57.30
2018-02-16T09:21:56.874Z,58.00
2018-02-16T09:22:58.317Z,57.40
2018-02-16T09:23:59.759Z,57.70
2018-02-16T09:25:01.154Z,57.90
2018-02-16T09:26:02.561Z,57.50
2018-02-16T09:27:04.694Z,58.30
2018-02-16T09:28:06.102Z,57.20
2018-02-16T09:29:07.506Z,57.20
2018-02-16T09:30:09.654Z,58.00
2018-02-16T09:31:11.801Z,58.30
2018-02-16T09:32:13.194Z,58.00
2018-02-16T09:33:14.593Z,57.60
2018-02-16T09:34:16.785Z,57.90
2018-02-16T09:35:18.177Z,57.50
2018-02-16T09:36:21.674Z,57.20
2018-02-16T09:37:25.516Z,57.40
2018-02-16T09:38:26.909Z,57.70
2018-02-16T09:39:30.202Z,58.00
2018-02-16T09:41:34.706Z,57.50
2018-02-16T09:42:36.102Z,57.50
2018-02-16T09:43:38.246Z,57.90
2018-02-16T09:44:39.774Z,57.90
2018-02-16T09:45:41.190Z,57.90
2018-02-16T09:46:43.332Z,58.10
2018-02-16T09:47:44.722Z,58.40
2018-02-16T09:48:46.112Z,58.10
2018-02-16T09:49:48.295Z,58.30
2018-02-16T09:50:50.407Z,58.80
2018-02-16T09:51:51.829Z,58.40
2018-02-16T09:52:53.224Z,58.40
2018-02-16T09:53:55.354Z,59.20
2018-02-16T09:54:59.801Z,58.90
2018-02-16T09:57:04.281Z,58.60
2018-02-16T09:58:05.667Z,58.70
2018-02-16T09:59:08.246Z,58.20
2018-02-16T10:00:09.767Z,58.10
2018-02-16T10:01:11.914Z,58.50
2018-02-16T10:02:14.042Z,58.30
2018-02-16T10:03:15.426Z,57.90
2018-02-16T10:04:16.814Z,57.80
2018-02-16T10:05:18.598Z,57.90
2018-02-16T10:06:20.729Z,58.30
2018-02-16T10:07:22.149Z,57.80
2018-02-16T10:08:24.269Z,57.70
2018-02-16T10:09:25.666Z,57.70
2018-02-16T10:10:28.841Z,57.90
2018-02-16T10:11:30.238Z,57.90
2018-02-16T10:12:31.634Z,58.10
2018-02-16T10:13:33.026Z,58.20
2018-02-16T10:14:34.422Z,57.90
2018-02-16T10:15:35.843Z,57.90
2018-02-16T10:16:38.730Z,58.50
2018-02-16T10:17:40.108Z,58.30
2018-02-16T10:18:41.495Z,58.60
2018-02-16T10:19:42.875Z,58.40
2018-02-16T10:20:44.572Z,58.10
2018-02-16T10:21:45.975Z,58.20
2018-02-16T10:22:47.370Z,57.80
2018-02-16T10:23:48.836Z,57.80
2018-02-16T10:24:50.970Z,58.50
2018-02-16T10:25:52.659Z,58.00
2018-02-16T10:26:54.055Z,58.20
2018-02-16T10:27:55.457Z,57.80
2018-02-16T10:28:56.842Z,57.90
2018-02-16T10:29:58.974Z,58.00
2018-02-16T10:31:00.391Z,57.50
2018-02-16T10:32:01.789Z,58.00
2018-02-16T10:33:03.196Z,58.30
2018-02-16T10:34:04.605Z,57.80
2018-02-16T10:35:05.992Z,58.00
2018-02-16T10:36:08.133Z,58.90
2018-02-16T10:37:09.536Z,58.00
2018-02-16T10:38:10.932Z,58.30
2018-02-16T10:39:13.066Z,58.60
2018-02-16T10:40:14.450Z,58.30
2018-02-16T10:41:16.126Z,58.60
2018-02-16T10:42:17.538Z,58.70
2018-02-16T10:43:18.922Z,58.70
2018-02-16T10:44:20.330Z,58.30
2018-02-16T10:45:21.719Z,58.40
2018-02-16T10:46:23.114Z,58.70
2018-02-16T10:47:24.524Z,58.90
2018-02-16T10:48:26.687Z,59.60
2018-02-16T10:49:28.089Z,59.30
2018-02-16T10:50:29.498Z,59.30
2018-02-16T10:51:31.198Z,59.20
2018-02-16T10:52:33.313Z,59.10
2018-02-16T10:53:34.697Z,58.70
2018-02-16T10:55:39.190Z,58.60
2018-02-16T10:57:44.450Z,59.20
2018-02-16T10:58:46.585Z,59.30
2018-02-16T10:59:47.981Z,59.00
2018-02-16T11:00:55.330Z,58.90
2018-02-16T11:05:02.405Z,58.20
2018-02-16T11:06:03.829Z,58.10
2018-02-16T11:07:11.300Z,58.40
2018-02-16T11:08:18.708Z,58.70
2018-02-16T11:09:20.090Z,58.20
2018-02-16T11:10:21.458Z,58.50
2018-02-16T11:11:22.854Z,58.20
2018-02-16T11:12:24.302Z,58.60
2018-02-16T11:13:25.675Z,58.80
2018-02-16T11:14:28.162Z,58.60
2018-02-16T11:15:29.548Z,58.70
2018-02-16T11:16:30.918Z,58.80
2018-02-16T11:17:32.346Z,59.00
2018-02-16T11:18:33.730Z,59.10
2018-02-16T11:19:35.850Z,58.90
2018-02-16T11:20:38.361Z,58.80
2018-02-16T11:21:40.501Z,58.90
2018-02-16T11:22:42.146Z,58.30
2018-02-16T11:23:45.069Z,58.60
2018-02-16T11:24:46.466Z,58.70
2018-02-16T11:25:48.585Z,59.30
2018-02-16T11:26:49.966Z,58.60
2018-02-16T11:27:52.866Z,58.90
2018-02-16T11:28:54.276Z,59.00
2018-02-16T11:29:55.653Z,58.90
2018-02-16T11:30:57.058Z,59.20
2018-02-16T11:31:59.190Z,59.70
2018-02-16T11:33:00.604Z,59.40
2018-02-16T11:34:01.982Z,59.40
2018-02-16T11:35:03.372Z,59.00
2018-02-16T11:36:05.497Z,58.70
2018-02-16T11:37:07.990Z,58.60
2018-02-16T11:38:09.409Z,58.70
2018-02-16T11:39:10.839Z,58.30
2018-02-16T11:40:12.234Z,58.00
2018-02-16T11:41:13.622Z,58.10
2018-02-16T11:42:15.750Z,59.10
2018-02-16T11:43:18.638Z,59.30
2018-02-16T11:44:20.014Z,59.00
2018-02-16T11:45:21.390Z,58.50
2018-02-16T11:46:22.812Z,58.10
2018-02-16T11:47:24.233Z,56.70
2018-02-16T11:48:25.642Z,58.10
2018-02-16T11:49:28.146Z,58.20
2018-02-16T11:50:30.294Z,58.80
2018-02-16T11:51:31.678Z,58.60
2018-02-16T11:52:33.082Z,58.40
2018-02-16T11:53:34.786Z,58.30
2018-02-16T11:54:36.908Z,58.50
2018-02-16T11:55:38.285Z,57.90
2018-02-16T11:56:40.414Z,58.20
2018-02-16T11:57:41.791Z,57.70
2018-02-16T11:58:43.190Z,57.40
2018-02-16T11:59:44.606Z,57.40
2018-02-16T12:00:45.984Z,58.00
2018-02-16T12:01:47.422Z,57.80
2018-02-16T12:02:48.829Z,57.40
2018-02-16T12:03:50.262Z,57.40
2018-02-16T12:04:51.670Z,57.80
2018-02-16T12:05:53.816Z,57.90
2018-02-16T12:06:56.719Z,57.50
2018-02-16T12:07:58.131Z,57.60
2018-02-16T12:09:00.334Z,57.90
2018-02-16T12:10:01.785Z,57.40
2018-02-16T12:11:03.220Z,57.40
2018-02-16T12:12:04.614Z,56.70
2018-02-16T12:14:09.128Z,57.40
2018-02-16T12:15:11.269Z,57.90
2018-02-16T12:17:15.849Z,57.40
2018-02-16T12:18:18.006Z,57.40
2018-02-16T12:19:19.448Z,57.40
2018-02-16T12:20:20.858Z,57.40
2018-02-16T12:21:22.238Z,57.40
2018-02-16T12:22:24.375Z,57.70
2018-02-16T12:23:25.778Z,57.70
2018-02-16T12:25:30.374Z,57.70
2018-02-16T12:26:31.782Z,57.60
2018-02-16T12:27:33.152Z,57.50
2018-02-16T12:28:34.550Z,58.00
2018-02-16T12:29:35.945Z,57.80
2018-02-16T12:30:37.340Z,58.40
2018-02-16T12:31:38.738Z,58.70
2018-02-16T12:32:40.869Z,58.70
2018-02-16T12:33:42.266Z,58.60
2018-02-16T12:34:43.674Z,58.40
2018-02-16T12:35:46.210Z,58.00
2018-02-16T12:36:47.606Z,58.10
2018-02-16T12:37:48.990Z,57.80
2018-02-16T12:38:50.402Z,57.50
2018-02-16T12:39:51.802Z,57.50
2018-02-16T12:41:56.303Z,57.50
2018-02-16T12:42:57.694Z,57.50
2018-02-16T12:43:59.094Z,57.50
2018-02-16T12:46:03.802Z,57.50
2018-02-16T12:47:05.199Z,57.50
2018-02-16T12:48:06.586Z,57.50
2018-02-16T12:49:08.709Z,57.80
2018-02-16T12:50:10.374Z,57.50
2018-02-16T12:51:11.764Z,57.50
2018-02-16T12:52:13.149Z,57.40
2018-02-16T12:53:14.544Z,57.50
2018-02-16T12:54:15.937Z,57.50
2018-02-16T12:55:17.602Z,57.80
2018-02-16T12:56:19.730Z,58.50
2018-02-16T12:57:21.175Z,58.20
2018-02-16T12:58:22.569Z,58.20
2018-02-16T12:59:23.969Z,57.80
2018-02-16T13:00:26.442Z,58.40
2018-02-16T13:01:28.583Z,58.40
2018-02-16T13:02:29.962Z,57.90
2018-02-16T13:03:31.388Z,57.50
2018-02-16T13:04:32.798Z,57.90
2018-02-16T13:05:34.198Z,57.50
2018-02-16T13:06:35.610Z,57.50
2018-02-16T13:07:38.110Z,58.00
2018-02-16T13:08:39.503Z,58.20
2018-02-16T13:09:41.637Z,59.00
2018-02-16T13:10:43.070Z,58.60
2018-02-16T13:11:44.454Z,57.80
2018-02-16T13:12:45.838Z,58.10
2018-02-16T13:13:47.251Z,57.60
2018-02-16T13:14:48.640Z,57.60
2018-02-16T13:16:53.210Z,57.60
2018-02-16T13:17:54.596Z,57.70
2018-02-16T13:19:59.149Z,57.60
2018-02-16T13:21:00.563Z,57.60
2018-02-16T13:22:03.686Z,57.40
2018-02-16T13:23:05.107Z,57.60
2018-02-16T13:24:06.522Z,57.10
2018-02-16T13:25:08.654Z,58.00
2018-02-16T13:26:10.434Z,57.50
2018-02-16T13:27:12.948Z,57.50
2018-02-16T13:28:14.332Z,57.50
2018-02-16T13:30:18.966Z,57.50
2018-02-16T13:31:21.110Z,58.00
2018-02-16T13:32:23.257Z,58.20
2018-02-16T13:33:24.654Z,57.50
2018-02-16T13:34:26.063Z,57.50
2018-02-16T13:35:27.450Z,57.40
2018-02-16T13:36:28.866Z,57.50
2018-02-16T13:37:30.291Z,57.40
2018-02-16T13:38:32.770Z,57.50
2018-02-16T13:39:34.156Z,57.50
2018-02-16T13:40:35.556Z,57.50
2018-02-16T13:41:37.707Z,58.10
2018-02-16T13:42:39.087Z,58.30
2018-02-16T13:43:40.487Z,58.20
2018-02-16T13:44:41.885Z,57.40
2018-02-16T13:45:44.044Z,58.00
2018-02-16T13:46:46.194Z,57.90
2018-02-16T13:47:47.578Z,57.50
2018-02-16T13:48:49.710Z,56.90
2018-02-16T13:49:51.101Z,57.00
2018-02-16T13:50:52.504Z,57.30
2018-02-16T13:51:53.933Z,57.10
2018-02-16T13:52:56.098Z,57.20
2018-02-16T13:53:57.491Z,56.70
2018-02-16T13:54:58.870Z,56.60
2018-02-16T13:57:03.376Z,56.70
2018-02-16T13:58:05.502Z,56.60
2018-02-16T13:59:06.894Z,56.70